Time;durP1;ratioP1;P1;durP2;ratioP2;P2;SDS_P1;SDS_P2;PMS_P1;PMS_P2;Temp;Humidity;BMP_temperature;BMP_pressure;BME280_temperature;BME280_humidity;BME280_pressure;Samples;Min_cycle;Max_cycle;Signal;HPM_P1;HPM_P2
2022/05/19 00:01:24;;;;;;;3.45;2.55;;;;;;;21.69;52.41;100550.19;5053457;28;20057;-57
2022/05/19 00:03:53;;;;;;;3.45;2.65;;;;;;;21.83;51.74;100544.69;5053761;28;20103;-57
2022/05/19 00:06:22;;;;;;;3.90;2.88;;;;;;;21.87;51.45;100542.69;5054087;28;20049;-55
2022/05/19 00:08:53;;;;;;;4.75;2.58;;;;;;;22.00;51.31;100531.06;5053440;28;20059;-57
2022/05/19 00:11:24;;;;;;;8.10;3.17;;;;;;;22.02;50.96;100540.00;5054224;28;20049;-56
2022/05/19 00:13:51;;;;;;;4.05;3.25;;;;;;;22.05;50.70;100536.41;5053580;28;20064;-58
2022/05/19 00:16:19;;;;;;;4.43;2.67;;;;;;;22.05;50.74;100544.91;5053863;28;20052;-53
2022/05/19 00:18:46;;;;;;;3.63;2.88;;;;;;;22.12;50.63;100538.47;5053519;28;20045;-57
2022/05/19 00:21:14;;;;;;;5.32;2.50;;;;;;;22.19;50.55;100541.34;5053401;28;20049;-53
2022/05/19 00:23:41;;;;;;;4.35;2.90;;;;;;;22.24;49.83;100533.34;5053478;28;20489;-57
2022/05/19 00:26:10;;;;;;;4.10;2.60;;;;;;;22.23;49.95;100534.53;5053835;28;20053;-57
2022/05/19 00:28:39;;;;;;;4.72;2.72;;;;;;;22.27;49.63;100537.41;5053300;28;20055;-59
2022/05/19 00:31:06;;;;;;;5.18;2.92;;;;;;;22.37;49.42;100536.69;5053685;28;20059;-59
2022/05/19 00:33:34;;;;;;;6.15;2.80;;;;;;;22.31;49.61;100534.59;5053467;28;20060;-59
2022/05/19 00:36:08;;;;;;;3.83;2.58;;;;;;;22.29;49.55;100527.28;5053922;28;20060;-59
2022/05/19 00:38:35;;;;;;;3.40;2.50;;;;;;;22.35;49.25;100532.63;5053211;28;20065;-58
2022/05/19 00:41:04;;;;;;;5.07;2.90;;;;;;;22.38;49.01;100528.97;5053457;28;20060;-59
2022/05/19 00:43:36;;;;;;;3.08;2.33;;;;;;;22.37;49.21;100538.72;5053530;28;20052;-59
2022/05/19 00:46:08;;;;;;;4.20;2.53;;;;;;;22.42;49.02;100530.63;5053413;28;20080;-59
2022/05/19 00:48:46;;;;;;;3.75;2.60;;;;;;;22.43;48.70;100531.47;5053524;28;20433;-59
2022/05/19 00:51:16;;;;;;;3.65;2.50;;;;;;;22.44;48.87;100525.38;5053538;28;20053;-58
2022/05/19 00:53:47;;;;;;;5.70;2.90;;;;;;;22.40;48.61;100518.03;5053430;28;20143;-59
2022/05/19 00:56:22;;;;;;;4.55;2.47;;;;;;;22.38;48.67;100514.78;5052896;28;20058;-59
2022/05/19 00:58:56;;;;;;;4.40;2.80;;;;;;;22.46;48.78;100516.47;5052800;28;20052;-58
2022/05/19 01:01:24;;;;;;;4.60;2.80;;;;;;;22.47;48.40;100509.59;5052542;28;20057;-55
2022/05/19 01:03:56;;;;;;;4.35;2.80;;;;;;;22.40;48.47;100509.53;5052468;28;20056;-59
2022/05/19 01:06:25;;;;;;;5.28;2.63;;;;;;;22.45;48.27;100512.00;5052927;28;20053;-55
2022/05/19 01:08:57;;;;;;;4.55;2.22;;;;;;;22.43;48.31;100511.59;5052809;28;20379;-56
2022/05/19 01:11:25;;;;;;;4.25;2.83;;;;;;;22.45;48.24;100512.00;5052376;28;20049;-57
2022/05/19 01:13:54;;;;;;;4.63;2.45;;;;;;;22.47;48.17;100512.44;5052258;28;20045;-56
2022/05/19 01:16:24;;;;;;;5.10;2.75;;;;;;;22.46;48.07;100513.63;5052628;28;20489;-59
2022/05/19 01:18:52;;;;;;;4.15;2.67;;;;;;;22.44;48.03;100504.69;5052127;28;20061;-59
2022/05/19 01:21:22;;;;;;;2.97;2.50;;;;;;;22.47;47.97;100516.09;5052531;28;20056;-59
2022/05/19 01:24:03;;;;;;;3.58;2.65;;;;;;;22.43;48.01;100509.56;5052698;28;20067;-59
2022/05/19 01:26:44;;;;;;;3.95;2.65;;;;;;;22.44;47.91;100510.38;5052198;28;20049;-57
2022/05/19 01:29:14;;;;;;;3.97;2.42;;;;;;;22.45;47.73;100506.34;5052240;28;20057;-59
2022/05/19 01:31:46;;;;;;;4.63;2.65;;;;;;;22.41;47.87;100506.31;5051872;28;20067;-59
2022/05/19 01:34:14;;;;;;;4.38;2.75;;;;;;;22.36;47.93;100506.66;5052317;28;20477;-58
2022/05/19 01:36:41;;;;;;;4.28;2.40;;;;;;;22.38;47.78;100492.09;5052537;28;20057;-59
2022/05/19 01:39:11;;;;;;;5.10;2.95;;;;;;;22.37;47.79;100496.13;5052231;28;20413;-59
2022/05/19 01:41:58;;;;;;;3.88;2.70;;;;;;;22.43;47.65;100484.03;5052190;28;20068;-59
2022/05/19 01:44:38;;;;;;;5.90;2.70;;;;;;;22.40;47.65;100495.34;5052352;28;20068;-59
2022/05/19 01:47:11;;;;;;;4.00;2.60;;;;;;;22.31;48.03;100489.19;5052052;28;20055;-59
2022/05/19 01:49:43;;;;;;;3.08;2.65;;;;;;;22.36;47.66;100489.63;5052452;28;20057;-59
2022/05/19 01:52:17;;;;;;;3.40;2.78;;;;;;;22.31;47.87;100489.19;5052072;28;20045;-59
2022/05/19 01:54:53;;;;;;;3.15;2.33;;;;;;;22.26;48.06;100482.69;5052317;28;20163;-59
2022/05/19 01:57:27;;;;;;;3.72;2.50;;;;;;;22.26;47.81;100471.34;5051790;28;20072;-58
2022/05/19 02:00:03;;;;;;;6.80;2.97;;;;;;;22.20;47.81;100474.91;5051992;28;20076;-59
2022/05/19 02:02:43;;;;;;;4.28;2.72;;;;;;;22.18;47.84;100478.13;5051897;28;20048;-59
2022/05/19 02:05:18;;;;;;;4.28;2.63;;;;;;;22.25;47.95;100475.38;5052248;28;20061;-59
2022/05/19 02:07:49;;;;;;;2.80;2.40;;;;;;;22.24;48.06;100479.44;5052289;28;20416;-57
2022/05/19 02:10:21;;;;;;;2.80;2.40;;;;;;;22.20;47.99;100484.22;5051490;28;20048;-56
2022/05/19 02:12:51;;;;;;;3.65;2.80;;;;;;;22.18;47.91;100478.13;5052081;28;20053;-58
2022/05/19 02:15:22;;;;;;;3.70;2.40;;;;;;;22.16;48.18;100477.72;5052144;28;20053;-58
2022/05/19 02:17:52;;;;;;;5.45;2.80;;;;;;;22.21;47.95;100479.38;5051887;28;20064;-55
2022/05/19 02:20:23;;;;;;;5.30;2.92;;;;;;;22.15;48.07;100487.41;5052187;28;20068;-54
2022/05/19 02:22:50;;;;;;;3.85;2.42;;;;;;;22.19;48.04;100488.25;5051709;28;20477;-52
2022/05/19 02:25:24;;;;;;;4.00;3.20;;;;;;;22.15;48.29;100486.59;5051718;28;20076;-57
2022/05/19 02:27:56;;;;;;;4.22;2.72;;;;;;;22.10;48.28;100482.94;5051652;28;20057;-59
2022/05/19 02:30:30;;;;;;;3.10;2.47;;;;;;;22.08;48.62;100502.38;5052065;28;20055;-55
2022/05/19 02:32:57;;;;;;;4.93;2.70;;;;;;;22.07;48.42;100506.41;5051533;28;20523;-58
2022/05/19 02:35:25;;;;;;;3.97;2.78;;;;;;;22.10;48.36;100499.13;5052041;28;20055;-56
2022/05/19 02:37:53;;;;;;;3.97;2.70;;;;;;;21.96;48.71;100485.66;5051824;28;20049;-58
2022/05/19 02:40:25;;;;;;;5.00;2.83;;;;;;;21.99;48.62;100487.72;5052149;28;20057;-52
2022/05/19 02:42:54;;;;;;;4.28;2.50;;;;;;;21.97;48.88;100478.78;5051767;28;20048;-53
2022/05/19 02:45:22;;;;;;;6.53;3.38;;;;;;;21.93;48.81;100480.78;5055967;28;20057;-53
2022/05/19 02:47:51;;;;;;;3.17;2.40;;;;;;;21.92;48.84;100481.97;5055241;28;20063;-55
2022/05/19 02:50:20;;;;;;;3.65;2.70;;;;;;;21.88;49.04;100484.78;5055607;28;20064;-55
2022/05/19 02:52:48;;;;;;;3.65;2.97;;;;;;;21.87;49.11;100480.31;5055646;28;20051;-55
2022/05/19 02:55:16;;;;;;;4.95;2.70;;;;;;;21.80;49.07;100480.25;5055221;28;20056;-55
2022/05/19 02:57:44;;;;;;;3.00;2.70;;;;;;;21.79;49.33;100475.78;5055609;28;20059;-57
2022/05/19 03:00:16;;;;;;;4.75;2.67;;;;;;;21.77;49.58;100481.03;5054660;28;20494;-53
2022/05/19 03:02:44;;;;;;;3.75;2.63;;;;;;;21.72;49.44;100478.56;5055443;28;20053;-57
2022/05/19 03:05:13;;;;;;;5.40;2.80;;;;;;;21.66;49.35;100472.41;5055076;28;20424;-54
2022/05/19 03:07:41;;;;;;;4.28;2.80;;;;;;;21.61;49.71;100474.81;5055447;28;20049;-54
2022/05/19 03:10:09;;;;;;;3.42;2.75;;;;;;;21.58;49.68;100467.88;5054733;28;20053;-53
2022/05/19 03:12:39;;;;;;;5.40;2.80;;;;;;;21.55;49.77;100467.88;5055230;28;20497;-58
2022/05/19 03:15:11;;;;;;;6.15;2.95;;;;;;;21.52;49.89;100469.44;5054864;28;20490;-58
2022/05/19 03:17:40;;;;;;;4.57;3.15;;;;;;;21.52;49.73;100477.13;5055007;28;20053;-55
2022/05/19 03:20:09;;;;;;;3.78;2.78;;;;;;;21.53;49.65;100468.25;5054742;28;20477;-57
2022/05/19 03:22:36;;;;;;;7.50;3.08;;;;;;;21.44;49.77;100468.56;5055161;28;20045;-52
2022/05/19 03:25:05;;;;;;;5.10;2.80;;;;;;;21.52;49.64;100477.13;5054527;28;20045;-54
2022/05/19 03:27:33;;;;;;;5.78;2.58;;;;;;;21.53;49.55;100485.25;5055064;28;20520;-53
2022/05/19 03:30:00;;;;;;;5.13;2.47;;;;;;;21.60;49.40;100490.19;5054484;28;20500;-55
2022/05/19 03:32:28;;;;;;;2.90;2.42;;;;;;;21.57;49.32;100485.31;5054812;28;20052;-59
2022/05/19 03:34:57;;;;;;;5.13;2.80;;;;;;;21.55;49.27;100484.88;5054909;28;20480;-58
2022/05/19 03:37:24;;;;;;;3.90;2.50;;;;;;;21.53;49.68;100490.13;5054893;28;20409;-54
2022/05/19 03:39:52;;;;;;;3.45;2.90;;;;;;;21.57;49.04;100493.81;5054541;28;20061;-57
2022/05/19 03:42:19;;;;;;;6.05;2.95;;;;;;;21.60;49.01;100490.19;5054277;28;20049;-58
2022/05/19 03:44:46;;;;;;;3.35;2.72;;;;;;;21.64;48.90;100486.16;5054454;28;20049;-56
2022/05/19 03:47:13;;;;;;;5.10;2.75;;;;;;;21.66;49.03;100492.25;5054410;28;20405;-55
2022/05/19 03:49:41;;;;;;;4.90;2.60;;;;;;;21.62;49.29;100493.44;5054483;28;20056;-58
2022/05/19 03:52:09;;;;;;;3.40;2.80;;;;;;;21.57;49.17;100485.31;5054396;28;20049;-56
2022/05/19 03:54:37;;;;;;;3.13;2.63;;;;;;;21.54;49.05;100481.19;5053761;28;20064;-59
2022/05/19 03:57:06;;;;;;;4.00;2.65;;;;;;;21.54;49.08;100486.06;5054419;28;20059;-55
2022/05/19 03:59:33;;;;;;;3.58;2.70;;;;;;;21.60;49.14;100478.84;5054121;28;20057;-57
2022/05/19 04:02:02;;;;;;;3.72;2.42;;;;;;;21.59;48.74;100486.53;5053838;28;20053;-57
2022/05/19 04:04:29;;;;;;;4.63;2.87;;;;;;;21.59;48.67;100480.06;5053984;28;20053;-56
2022/05/19 04:06:56;;;;;;;3.67;2.25;;;;;;;21.66;48.11;100483.75;5054221;28;20052;-54
2022/05/19 04:09:25;;;;;;;5.03;2.33;;;;;;;21.76;48.10;100492.78;5053347;28;20049;-55
2022/05/19 04:11:53;;;;;;;6.05;2.78;;;;;;;21.72;48.00;100478.56;5054246;28;20425;-55
2022/05/19 04:14:21;;;;;;;4.75;2.35;;;;;;;21.83;47.70;100476.63;5053334;28;20064;-58
2022/05/19 04:16:50;;;;;;;3.70;2.40;;;;;;;21.86;47.46;100475.84;5053828;28;20068;-59
2022/05/19 04:19:17;;;;;;;4.87;2.63;;;;;;;21.83;47.37;100485.13;5053543;28;20060;-53
2022/05/19 04:21:45;;;;;;;3.28;2.20;;;;;;;21.93;46.98;100482.78;5054093;28;20063;-57
2022/05/19 04:24:13;;;;;;;3.28;2.55;;;;;;;21.86;47.17;100481.53;5053421;28;20115;-56
2022/05/19 04:26:42;;;;;;;3.47;2.60;;;;;;;22.07;46.78;100488.59;5053860;28;20049;-58
2022/05/19 04:29:09;;;;;;;3.50;2.10;;;;;;;22.14;46.43;100477.28;5053600;28;20060;-57
2022/05/19 04:31:39;;;;;;;4.63;2.20;;;;;;;22.12;46.62;100482.53;5053125;28;20058;-57
2022/05/19 04:34:06;;;;;;;3.95;2.30;;;;;;;22.04;46.99;100469.50;5053024;28;20060;-57
2022/05/19 04:36:33;;;;;;;4.38;2.58;;;;;;;22.03;46.89;100476.41;5053432;28;20056;-58
2022/05/19 04:39:01;;;;;;;3.17;2.40;;;;;;;22.05;47.10;100480.47;5053271;28;20390;-54
2022/05/19 04:41:28;;;;;;;4.05;2.67;;;;;;;22.07;47.14;100480.09;5053378;28;20056;-53
2022/05/19 04:43:57;;;;;;;3.53;2.30;;;;;;;22.14;46.75;100480.13;5053475;28;20072;-52
2022/05/19 04:46:24;;;;;;;3.67;2.30;;;;;;;22.14;46.90;100470.81;5052783;28;20053;-57
2022/05/19 04:48:52;;;;;;;2.97;2.35;;;;;;;22.20;46.46;100478.56;5053018;28;20493;-59
2022/05/19 04:51:19;;;;;;;3.92;2.50;;;;;;;22.18;46.80;100472.47;5052868;28;20056;-58
2022/05/19 04:53:46;;;;;;;3.13;2.25;;;;;;;22.20;46.85;100472.06;5052941;28;20432;-55
2022/05/19 04:56:14;;;;;;;4.95;2.97;;;;;;;22.21;46.85;100474.50;5052735;28;20386;-55
2022/05/19 04:58:41;;;;;;;3.38;2.55;;;;;;;22.34;46.29;100468.53;5052939;28;20048;-52
2022/05/19 05:01:10;;;;;;;3.03;2.42;;;;;;;22.48;45.81;100480.00;5052328;28;20059;-59
2022/05/19 05:03:37;;;;;;;4.25;2.67;;;;;;;22.46;46.16;100474.69;5053029;28;20044;-56
2022/05/19 05:06:05;;;;;;;2.90;2.28;;;;;;;22.56;45.61;100478.00;5052224;28;20060;-56
2022/05/19 05:08:32;;;;;;;3.47;2.35;;;;;;;22.68;45.48;100481.31;5053097;28;20052;-59
2022/05/19 05:10:59;;;;;;;4.18;2.58;;;;;;;22.83;45.35;100472.88;5052938;28;20063;-58
2022/05/19 05:13:27;;;;;;;4.53;2.63;;;;;;;22.95;45.88;100485.91;5052775;28;20052;-58
2022/05/19 05:15:55;;;;;;;4.63;2.38;;;;;;;23.05;45.09;100485.97;5052617;28;20064;-53
2022/05/19 05:18:24;;;;;;;3.05;2.40;;;;;;;23.16;45.58;100488.06;5052872;28;20057;-57
2022/05/19 05:20:51;;;;;;;3.80;2.28;;;;;;;23.26;44.54;100487.28;5052908;28;20053;-56
2022/05/19 05:23:18;;;;;;;5.55;2.45;;;;;;;23.37;44.68;100482.47;5052579;28;20474;-59
2022/05/19 05:25:46;;;;;;;3.25;2.40;;;;;;;23.48;43.98;100480.44;5052655;28;20056;-55
2022/05/19 05:28:13;;;;;;;5.78;2.45;;;;;;;23.61;43.62;100475.19;5052578;28;20057;-57
2022/05/19 05:30:40;;;;;;;2.50;2.30;;;;;;;23.74;43.17;100475.59;5052616;28;20057;-57
2022/05/19 05:33:10;;;;;;;3.65;2.50;;;;;;;23.84;43.33;100474.03;5052406;28;20049;-58
2022/05/19 05:35:39;;;;;;;5.63;2.47;;;;;;;24.00;42.94;100470.75;5052784;28;20049;-57
2022/05/19 05:38:06;;;;;;;3.17;2.28;;;;;;;24.06;43.15;100463.44;5052185;28;20057;-53
2022/05/19 05:40:33;;;;;;;4.25;2.40;;;;;;;24.21;42.67;100464.25;5052549;28;20409;-56
2022/05/19 05:43:12;;;;;;;4.22;2.30;;;;;;;24.22;41.50;100457.34;5052896;28;20060;-58
2022/05/19 05:45:40;;;;;;;3.72;2.40;;;;;;;24.33;42.36;100458.13;5052701;28;20049;-59
2022/05/19 05:48:08;;;;;;;3.55;2.33;;;;;;;24.35;42.30;100455.69;5052053;28;20049;-58
2022/05/19 05:50:38;;;;;;;2.50;1.90;;;;;;;24.44;42.08;100455.25;5052235;28;20053;-60
2022/05/19 05:53:08;;;;;;;3.80;2.10;;;;;;;24.58;41.42;100452.41;5052129;28;20056;-58
2022/05/19 05:55:37;;;;;;;5.03;2.20;;;;;;;24.62;41.30;100456.06;5051696;28;20060;-59
2022/05/19 05:58:05;;;;;;;3.72;1.90;;;;;;;24.76;40.66;100458.06;5052112;28;20060;-55
2022/05/19 06:00:33;;;;;;;5.53;2.22;;;;;;;24.75;41.20;100462.13;5051660;28;20057;-55
2022/05/19 06:03:00;;;;;;;4.72;2.42;;;;;;;24.83;41.11;100463.72;5052109;28;20058;-56
2022/05/19 06:05:27;;;;;;;3.58;1.90;;;;;;;24.92;40.90;100463.28;5051521;28;20068;-59
2022/05/19 06:07:55;;;;;;;3.08;2.13;;;;;;;24.92;40.64;100461.25;5052226;28;20056;-59
2022/05/19 06:10:24;;;;;;;3.53;2.17;;;;;;;25.00;40.71;100462.03;5051390;28;20053;-58
2022/05/19 06:12:51;;;;;;;3.47;2.47;;;;;;;25.03;40.66;100452.66;5052082;28;20511;-58
2022/05/19 06:15:18;;;;;;;3.28;2.10;;;;;;;25.14;39.75;100455.47;5051695;28;20481;-58
2022/05/19 06:17:46;;;;;;;2.75;2.03;;;;;;;25.25;40.31;100461.94;5053194;28;20064;-53
2022/05/19 06:20:16;;;;;;;2.92;2.20;;;;;;;25.41;40.39;100463.47;5055696;28;20057;-56
2022/05/19 06:22:44;;;;;;;3.10;2.47;;;;;;;25.64;39.75;100460.88;5055962;28;20053;-55
2022/05/19 06:25:19;;;;;;;3.55;2.10;;;;;;;25.82;39.81;100466.44;5055560;28;20053;-57
2022/05/19 06:27:49;;;;;;;7.05;2.75;;;;;;;26.06;40.27;100469.53;5055795;28;20508;-56
2022/05/19 06:30:17;;;;;;;3.60;2.15;;;;;;;26.23;40.81;100485.72;5055261;28;20048;-57
2022/05/19 06:32:47;;;;;;;3.63;2.40;;;;;;;26.25;41.70;100517.50;5055436;28;20053;-54
2022/05/19 06:35:17;;;;;;;4.68;2.00;;;;;;;26.18;41.00;100537.53;5055354;28;20064;-55
2022/05/19 06:37:44;;;;;;;5.30;2.30;;;;;;;26.18;39.22;100502.47;5055906;28;20405;-57
2022/05/19 06:40:13;;;;;;;3.38;2.00;;;;;;;25.83;38.10;100479.50;5055491;28;20052;-52
2022/05/19 06:42:40;;;;;;;6.93;2.30;;;;;;;25.77;37.63;100478.31;5055549;28;20412;-56
2022/05/19 06:45:11;;;;;;;4.32;1.95;;;;;;;25.75;38.54;100495.03;5055619;28;20048;-58
2022/05/19 06:47:38;;;;;;;3.63;2.22;;;;;;;25.78;38.50;100493.38;5055379;28;20060;-58
2022/05/19 06:50:09;;;;;;;3.95;2.20;;;;;;;25.88;38.24;100507.56;5055432;28;20044;-53
2022/05/19 06:52:43;;;;;;;3.90;2.25;;;;;;;25.93;38.43;100520.63;5055746;28;20064;-56
2022/05/19 06:55:12;;;;;;;3.80;1.90;;;;;;;26.10;38.79;100530.25;5055035;28;20187;-58
2022/05/19 06:57:40;;;;;;;3.10;1.95;;;;;;;26.21;38.82;100533.88;5055604;28;20378;-58
2022/05/19 07:00:12;;;;;;;4.30;1.90;;;;;;;26.49;39.03;100529.13;5054673;28;20064;-56
2022/05/19 07:02:43;;;;;;;3.92;2.50;;;;;;;26.79;38.67;100517.00;5055510;28;20064;-55
2022/05/19 07:05:11;;;;;;;6.70;2.55;;;;;;;27.06;38.39;100519.16;5055079;28;20044;-58
2022/05/19 07:07:39;;;;;;;4.88;2.33;;;;;;;27.30;37.68;100531.56;5054885;28;20060;-58
2022/05/19 07:10:09;;;;;;;4.25;2.33;;;;;;;27.58;38.72;100516.03;5055087;28;20405;-58
2022/05/19 07:12:38;;;;;;;5.50;2.05;;;;;;;27.78;37.89;100518.19;5055121;28;20497;-57
2022/05/19 07:15:06;;;;;;;3.53;2.00;;;;;;;27.99;36.02;100512.19;5054992;28;20056;-58
2022/05/19 07:17:35;;;;;;;4.38;2.20;;;;;;;28.06;35.49;100500.59;5054514;28;20049;-58
2022/05/19 07:22:47;;;;;;;3.63;2.15;;;;;;;28.11;35.86;100500.09;5060849;28;20072;-58
2022/05/19 07:25:14;;;;;;;4.10;1.90;;;;;;;28.36;35.25;100510.31;5054226;28;20050;-58
2022/05/19 07:27:42;;;;;;;3.05;2.00;;;;;;;28.61;33.89;100517.69;5054731;28;20064;-54
2022/05/19 07:30:12;;;;;;;2.10;1.70;;;;;;;28.74;33.41;100516.59;5054007;28;20060;-54
2022/05/19 07:32:41;;;;;;;2.78;2.20;;;;;;;29.03;33.43;100516.03;5054926;28;20060;-54
2022/05/19 07:35:11;;;;;;;3.30;1.88;;;;;;;29.34;32.53;100515.84;5054984;28;20091;-56
2022/05/19 07:37:39;;;;;;;2.63;1.88;;;;;;;29.64;32.55;100516.81;5054688;28;20501;-56
2022/05/19 07:40:07;;;;;;;3.67;2.00;;;;;;;29.75;31.93;100515.31;5054383;28;20401;-57
2022/05/19 07:42:35;;;;;;;4.82;2.15;;;;;;;29.85;31.92;100509.78;5054143;28;20064;-58
2022/05/19 07:45:03;;;;;;;3.22;1.90;;;;;;;29.72;31.55;100512.53;5054586;28;20219;-55
2022/05/19 07:47:30;;;;;;;3.58;1.98;;;;;;;29.46;31.97;100508.59;5054461;28;20059;-52
2022/05/19 07:49:59;;;;;;;3.60;1.92;;;;;;;29.03;33.24;100518.91;5054379;28;20045;-54
2022/05/19 07:52:27;;;;;;;;;;;;;;;29.18;32.78;100505.09;5054735;28;20495;-56
2022/05/19 07:54:54;;;;;;;3.33;2.00;;;;;;;29.80;32.22;100505.38;5054147;28;19928;-55
2022/05/19 07:57:24;;;;;;;4.20;2.15;;;;;;;30.16;31.17;100501.63;5054220;28;20053;-55
2022/05/19 07:59:52;;;;;;;4.55;1.88;;;;;;;30.43;30.85;100509.16;5053799;28;20417;-56
2022/05/19 08:02:20;;;;;;;3.35;2.05;;;;;;;30.74;30.15;100498.88;5053419;28;20060;-55
2022/05/19 08:04:47;;;;;;;4.05;2.10;;;;;;;31.07;29.66;100498.75;5053630;28;20049;-58
2022/05/19 08:07:16;;;;;;;4.05;2.20;;;;;;;31.52;29.03;100491.25;5053739;28;20057;-54
2022/05/19 08:15:35;;;;;;;3.13;1.77;;;;;;;33.16;26.27;100496.38;5056927;28;20096;-58
2022/05/19 08:18:05;;;;;;;4.60;2.10;;;;;;;33.03;26.36;100494.78;5054122;28;20397;-58
2022/05/19 08:20:33;;;;;;;2.72;2.17;;;;;;;32.52;27.55;100498.69;5053539;28;20049;-59
2022/05/19 08:23:02;;;;;;;4.03;2.00;;;;;;;31.73;28.42;100492.66;5053567;28;20057;-59
2022/05/19 08:25:29;;;;;;;6.25;2.22;;;;;;;31.47;28.79;100484.00;5053190;28;20053;-58
2022/05/19 08:27:58;;;;;;;2.53;2.08;;;;;;;31.79;28.25;100479.28;5053487;28;20060;-58
2022/05/19 08:30:26;;;;;;;4.20;2.00;;;;;;;32.65;28.99;100487.13;5053557;28;20412;-58
2022/05/19 08:32:55;;;;;;;2.85;2.38;;;;;;;33.32;26.38;100477.19;5053428;28;20067;-58
2022/05/19 08:35:23;;;;;;;2.58;1.85;;;;;;;33.55;26.76;100482.44;5053287;28;20473;-58
2022/05/19 08:37:50;;;;;;;2.97;1.90;;;;;;;33.59;26.13;100478.63;5052804;28;20052;-59
2022/05/19 08:40:20;;;;;;;3.10;2.15;;;;;;;33.91;25.36;100483.09;5052621;28;20474;-58
2022/05/19 08:42:54;;;;;;;3.17;1.90;;;;;;;34.03;26.21;100479.28;5052717;28;20049;-56
2022/05/19 08:45:25;;;;;;;3.10;1.90;;;;;;;34.69;25.57;100478.97;5052590;28;20045;-56
2022/05/19 08:48:03;;;;;;;4.38;2.10;;;;;;;35.33;24.74;100466.47;5053103;28;20060;-52
2022/05/19 08:50:37;;;;;;;4.00;2.30;;;;;;;35.90;23.19;100465.78;5052931;28;20057;-59
2022/05/19 08:53:06;;;;;;;3.53;2.00;;;;;;;35.93;24.04;100459.03;5053053;28;20053;-57
2022/05/19 08:55:38;;;;;;;3.15;2.05;;;;;;;35.20;24.97;100457.19;5052106;28;20060;-59
2022/05/19 08:58:14;;;;;;;3.20;2.28;;;;;;;34.87;25.44;100448.38;5052804;28;20409;-59
2022/05/19 09:00:48;;;;;;;4.82;2.30;;;;;;;34.76;26.11;100449.69;5052168;28;20053;-59
2022/05/19 09:03:23;;;;;;;4.60;2.13;;;;;;;34.39;26.15;100448.06;5052578;28;20132;-58
2022/05/19 09:06:06;;;;;;;3.88;1.80;;;;;;;34.13;26.03;100442.56;5052793;28;20049;-59
2022/05/19 09:08:49;;;;;;;3.70;2.05;;;;;;;33.25;27.42;100448.63;5052173;28;20068;-59
2022/05/19 09:11:20;;;;;;;3.33;2.10;;;;;;;33.36;27.18;100437.44;5052397;28;20049;-59
2022/05/19 09:13:54;;;;;;;2.50;1.92;;;;;;;32.99;28.15;100448.78;5052798;28;20508;-58
2022/05/19 09:16:24;;;;;;;5.22;2.10;;;;;;;32.35;28.72;100451.91;5052058;28;20128;-59
2022/05/19 09:18:58;;;;;;;3.65;1.92;;;;;;;32.32;28.79;100452.84;5052347;28;20057;-59
2022/05/19 09:21:26;;;;;;;4.60;2.33;;;;;;;32.41;28.64;100457.91;5052274;28;20053;-58
2022/05/19 09:23:53;;;;;;;3.40;2.20;;;;;;;32.26;28.38;100452.63;5052216;28;20140;-59
2022/05/19 09:26:49;;;;;;;4.20;2.35;;;;;;;32.02;29.69;100448.53;5051864;28;20056;-58
2022/05/19 09:29:20;;;;;;;2.70;2.10;;;;;;;32.11;29.42;100442.88;5052181;28;20401;-58
2022/05/19 09:31:50;;;;;;;2.97;2.28;;;;;;;32.20;29.23;100440.09;5052153;28;20396;-59
2022/05/19 09:34:20;;;;;;;3.08;2.20;;;;;;;32.44;28.75;100442.53;5052206;28;20056;-59
2022/05/19 09:37:01;;;;;;;3.38;2.05;;;;;;;32.23;29.89;100436.25;5051795;28;20053;-59
2022/05/19 09:39:35;;;;;;;3.05;1.80;;;;;;;32.13;30.30;100446.91;5051461;28;20413;-54
2022/05/19 09:42:09;;;;;;;4.38;2.10;;;;;;;32.06;30.13;100434.81;5052309;28;20068;-58
2022/05/19 09:44:40;;;;;;;4.10;2.30;;;;;;;31.83;30.78;100433.91;5051664;28;20045;-54
2022/05/19 09:47:20;;;;;;;3.38;2.10;;;;;;;32.15;29.80;100414.75;5052062;28;20057;-59
2022/05/19 09:49:58;;;;;;;2.88;2.13;;;;;;;33.07;29.01;100420.41;5051866;28;20076;-56
2022/05/19 09:52:27;;;;;;;4.40;2.60;;;;;;;34.21;27.61;100417.84;5051472;28;20080;-58
2022/05/19 09:54:57;;;;;;;3.63;2.40;;;;;;;35.36;25.93;100415.47;5051995;28;20056;-59
2022/05/19 09:57:34;;;;;;;3.10;2.45;;;;;;;36.49;24.17;100412.22;5051841;28;20412;-60
2022/05/19 10:00:07;;;;;;;4.20;2.40;;;;;;;37.98;22.51;100407.13;5051626;28;20049;-60
2022/05/19 10:02:38;;;;;;;3.30;2.45;;;;;;;38.74;21.70;100406.25;5051951;28;20057;-60
2022/05/19 10:05:21;;;;;;;3.03;2.50;;;;;;;39.86;20.44;100397.69;5051874;28;20397;-60
2022/05/19 10:07:51;;;;;;;2.70;2.40;;;;;;;40.53;19.08;100391.34;5051613;28;20377;-60
2022/05/19 10:10:21;;;;;;;3.70;2.25;;;;;;;40.83;19.67;100387.97;5051888;28;20060;-60
2022/05/19 10:12:50;;;;;;;3.53;2.28;;;;;;;41.60;18.36;100398.59;5052147;28;20497;-60
2022/05/19 10:15:26;;;;;;;4.03;2.47;;;;;;;41.87;18.54;100394.81;5051657;28;20049;-60
2022/05/19 10:18:06;;;;;;;2.75;2.20;;;;;;;41.57;19.19;100394.59;5051688;28;20060;-60
2022/05/19 10:20:42;;;;;;;3.75;2.22;;;;;;;40.34;19.83;100393.94;5051726;28;20052;-60
2022/05/19 10:23:24;;;;;;;5.07;2.63;;;;;;;39.41;20.08;100393.66;5051865;28;20404;-60
2022/05/19 10:26:20;;;;;;;3.75;2.20;;;;;;;39.89;20.03;100378.31;5051636;28;20076;-60
2022/05/19 10:31:54;;;;;;;3.88;2.30;;;;;;;39.81;19.89;100366.31;5029063;28;20049;-60
2022/05/19 10:34:41;;;;;;;3.33;2.10;;;;;;;40.45;20.38;100354.44;5051458;28;20488;-56
2022/05/19 10:37:20;;;;;;;4.40;2.75;;;;;;;40.26;20.02;100354.88;5051563;28;20053;-59
2022/05/19 10:40:08;;;;;;;3.58;2.42;;;;;;;39.93;20.50;100335.91;5051158;28;20053;-57
2022/05/19 10:42:48;;;;;;;2.55;2.10;;;;;;;40.01;20.74;100330.38;5051083;28;20064;-59
2022/05/19 10:45:22;;;;;;;3.60;2.28;;;;;;;40.71;19.48;100314.09;5051208;28;20056;-56
2022/05/19 10:48:40;;;;;;;5.38;2.53;;;;;;;40.94;19.40;100325.81;5051347;28;20493;-56
2022/05/19 10:51:11;;;;;;;3.45;2.40;;;;;;;40.46;20.09;100315.13;5018055;28;20053;-59
2022/05/19 10:53:54;;;;;;;4.32;2.45;;;;;;;40.09;20.00;100313.97;5031301;28;20060;-60
2022/05/19 10:56:38;;;;;;;2.60;2.10;;;;;;;40.69;20.32;100305.06;5049379;28;20049;-59
2022/05/19 10:59:23;;;;;;;3.63;2.67;;;;;;;40.03;20.34;100307.31;5051259;28;20052;-60
2022/05/19 11:02:05;;;;;;;4.00;2.20;;;;;;;39.76;20.75;100294.97;5050819;28;20053;-60
2022/05/19 11:04:59;;;;;;;5.07;3.28;;;;;;;40.89;19.71;100300.34;5052024;28;20076;-56
2022/05/19 11:07:41;;;;;;;4.40;2.53;;;;;;;41.81;19.85;100282.84;5046834;28;20060;-59
2022/05/19 11:10:21;;;;;;;2.88;2.10;;;;;;;42.10;19.10;100286.47;5054794;28;20056;-58
2022/05/19 11:12:59;;;;;;;2.63;2.42;;;;;;;42.18;17.76;100275.78;5054587;28;20049;-59
2022/05/19 11:15:37;;;;;;;2.97;2.53;;;;;;;42.32;17.38;100276.75;5054010;28;20493;-60
2022/05/19 11:18:13;;;;;;;4.43;2.50;;;;;;;41.64;18.58;100282.13;5054828;28;20060;-59
2022/05/19 11:21:04;;;;;;;3.10;2.45;;;;;;;41.91;18.89;100280.41;5054707;28;20056;-60
2022/05/19 11:23:44;;;;;;;3.22;2.28;;;;;;;42.72;18.22;100269.28;5054622;28;20053;-60
2022/05/19 11:26:23;;;;;;;3.55;2.03;;;;;;;42.30;17.91;100268.50;5054867;28;20053;-58
2022/05/19 11:28:59;;;;;;;4.60;2.47;;;;;;;42.60;18.21;100273.63;5054865;28;20064;-58
2022/05/19 11:31:36;;;;;;;3.28;2.10;;;;;;;42.11;18.46;100285.16;5054206;28;20053;-60
2022/05/19 11:34:13;;;;;;;3.35;2.42;;;;;;;41.34;18.80;100266.00;5054064;28;20061;-60
2022/05/19 11:36:47;;;;;;;3.03;2.10;;;;;;;41.53;19.06;100266.19;5054258;28;20052;-59
2022/05/19 11:39:22;;;;;;;6.78;2.60;;;;;;;41.64;18.88;100276.28;5054117;28;20374;-60
2022/05/19 11:41:52;;;;;;;2.80;1.98;;;;;;;42.36;18.56;100272.19;5053990;28;20045;-60
2022/05/19 11:44:24;;;;;;;3.60;2.13;;;;;;;42.07;18.83;100262.00;5054112;28;20396;-60
2022/05/19 11:46:57;;;;;;;5.18;2.35;;;;;;;43.03;17.64;100257.53;5053954;28;20434;-60
2022/05/19 11:55:17;;;;;;;4.40;2.13;;;;;;;40.65;20.07;100262.84;5020622;28;20159;-60
2022/05/19 11:57:52;;;;;;;4.18;2.25;;;;;;;39.50;20.39;100260.16;5053920;28;20045;-60
2022/05/19 12:00:22;;;;;;;4.47;2.40;;;;;;;39.35;20.81;100271.97;5053718;28;20053;-60